Time;durP1;ratioP1;P1;durP2;ratioP2;P2;SDS_P1;SDS_P2;PMS_P1;PMS_P2;Temp;Humidity;BMP_temperature;BMP_pressure;BME280_temperature;BME280_humidity;BME280_pressure;Samples;Min_cycle;Max_cycle;Signal;HPM_P1;HPM_P2
2022/06/24 00:00:06;;;;;;;19.03;10.37;;;;;;;19.49;100.00;100450.34;6221338;23;20008;-81
2022/06/24 00:02:32;;;;;;;19.13;10.57;;;;;;;19.29;100.00;100465.88;6221134;23;20028;-82
2022/06/24 00:05:01;;;;;;;15.82;11.00;;;;;;;19.16;100.00;100493.97;6221226;23;20004;-82
2022/06/24 00:07:26;;;;;;;23.33;12.27;;;;;;;19.10;100.00;100531.66;6221104;23;20004;-82
2022/06/24 00:09:52;;;;;;;24.33;12.30;;;;;;;19.04;100.00;100552.03;6221446;23;20015;-82
2022/06/24 00:12:23;;;;;;;19.50;13.93;;;;;;;19.03;100.00;100580.63;6221980;23;20008;-82
2022/06/24 00:15:00;;;;;;;53.55;17.92;;;;;;;19.00;100.00;100560.03;6247965;23;20438;-81
2022/06/24 00:17:30;;;;;;;50.00;22.90;;;;;;;18.99;100.00;100547.38;6221476;23;20019;-81
2022/06/24 00:20:01;;;;;;;44.77;25.90;;;;;;;18.96;100.00;100558.94;6221125;23;20018;-80
2022/06/24 00:22:31;;;;;;;54.72;29.73;;;;;;;18.96;100.00;100578.19;6248351;23;20146;-80
2022/06/24 00:25:10;;;;;;;57.38;33.58;;;;;;;18.99;100.00;100599.63;6221997;23;20038;-81
2022/06/24 00:27:36;;;;;;;58.92;33.28;;;;;;;19.00;100.00;100628.75;6247966;23;20012;-80
2022/06/24 00:30:15;;;;;;;57.05;31.45;;;;;;;18.95;100.00;100623.25;6171836;23;20004;-81
2022/06/24 00:32:43;;;;;;;53.33;28.57;;;;;;;18.95;100.00;100623.25;6221452;23;20008;-80
2022/06/24 00:35:12;;;;;;;31.60;22.58;;;;;;;18.75;100.00;100627.66;6221540;23;20008;-80
2022/06/24 00:37:40;;;;;;;34.40;21.92;;;;;;;18.67;100.00;100635.63;6221188;23;20334;-81
2022/06/24 00:40:14;;;;;;;34.63;20.33;;;;;;;18.57;100.00;100653.75;6221273;23;20019;-80
2022/06/24 00:42:43;;;;;;;28.83;18.10;;;;;;;18.39;100.00;100657.03;6247775;23;20008;-81
2022/06/24 00:45:23;;;;;;;29.30;14.60;;;;;;;18.23;100.00;100653.41;6247044;23;20012;-80
2022/06/24 00:47:51;;;;;;;24.48;13.15;;;;;;;18.10;100.00;100641.06;6247673;23;20098;-80
2022/06/24 00:50:24;;;;;;;24.88;13.38;;;;;;;18.14;100.00;100622.09;6220826;23;20012;-80
2022/06/24 00:52:58;;;;;;;20.65;12.13;;;;;;;18.13;100.00;100628.69;6220946;23;20008;-81
2022/06/24 00:55:30;;;;;;;17.95;10.23;;;;;;;18.06;100.00;100627.03;6196464;23;20074;-81
2022/06/24 00:57:57;;;;;;;15.43;7.73;;;;;;;17.90;100.00;100638.25;6221165;23;20083;-81
2022/06/24 01:00:28;;;;;;;8.75;6.05;;;;;;;17.74;100.00;100634.59;6220803;23;20456;-81
2022/06/24 01:02:59;;;;;;;10.75;5.35;;;;;;;17.52;100.00;100619.97;6247660;23;20012;-81
2022/06/24 01:05:25;;;;;;;5.82;4.25;;;;;;;17.31;100.00;100616.28;6247135;23;20008;-82
2022/06/24 01:07:51;;;;;;;14.00;4.95;;;;;;;17.31;100.00;100620.97;6220891;23;20019;-82
2022/06/24 01:10:16;;;;;;;4.83;3.90;;;;;;;17.14;100.00;100607.41;6220526;23;20005;-82
2022/06/24 01:12:42;;;;;;;8.47;3.87;;;;;;;17.04;100.00;100591.75;6195726;23;20019;-82
2022/06/24 01:15:08;;;;;;;5.07;3.40;;;;;;;16.97;100.00;100563.75;6170924;23;20020;-82
2022/06/24 01:17:34;;;;;;;5.80;3.03;;;;;;;16.90;100.00;100566.72;6220607;23;20027;-82
2022/06/24 01:20:00;;;;;;;5.35;2.70;;;;;;;16.87;100.00;100564.50;6196343;23;20012;-82
2022/06/24 01:22:26;;;;;;;4.90;2.63;;;;;;;16.84;100.00;100573.22;6247525;23;20031;-82
2022/06/24 01:24:53;;;;;;;4.87;3.03;;;;;;;16.86;100.00;100567.47;6195557;23;20242;-82
2022/06/24 01:27:19;;;;;;;7.15;3.00;;;;;;;16.87;100.00;100561.75;6220586;23;20134;-82
2022/06/24 01:29:45;;;;;;;5.45;2.70;;;;;;;16.77;100.00;100559.78;6220116;23;20008;-82
2022/06/24 01:32:11;;;;;;;5.63;2.50;;;;;;;16.74;100.00;100560.31;6220764;23;20012;-83
2022/06/24 01:34:37;;;;;;;7.03;2.50;;;;;;;16.78;100.00;100560.59;6195811;23;20012;-83
2022/06/24 01:37:03;;;;;;;4.30;2.63;;;;;;;16.72;100.00;100559.72;6196056;23;20008;-82
2022/06/24 01:39:29;;;;;;;3.67;2.15;;;;;;;16.77;100.00;100564.41;6195191;23;20035;-82
2022/06/24 01:41:55;;;;;;;2.58;1.88;;;;;;;16.75;100.00;100564.66;6247142;23;20008;-83
2022/06/24 01:44:22;;;;;;;2.70;1.80;;;;;;;16.75;100.00;100561.94;6194864;23;20016;-83
2022/06/24 01:46:48;;;;;;;3.92;1.90;;;;;;;16.80;100.00;100553.75;6219821;23;20103;-83
2022/06/24 01:49:13;;;;;;;3.97;1.57;;;;;;;16.72;100.00;100531.50;6246829;23;20028;-83
2022/06/24 01:51:41;;;;;;;3.15;1.80;;;;;;;16.63;100.00;100532.00;6221097;23;20008;-83
2022/06/24 01:54:07;;;;;;;1.63;1.45;;;;;;;16.59;100.00;100536.34;6220002;23;20425;-83
2022/06/24 01:56:32;;;;;;;2.50;1.70;;;;;;;16.57;100.00;100532.25;6195000;23;20014;-83
2022/06/24 01:58:58;;;;;;;2.70;1.77;;;;;;;16.46;100.00;100536.78;6220573;23;20070;-83
2022/06/24 02:01:23;;;;;;;3.23;1.97;;;;;;;16.43;100.00;100538.16;6194975;23;20008;-83
2022/06/24 02:03:49;;;;;;;3.45;1.83;;;;;;;16.44;100.00;100525.28;6247032;23;20000;-83
2022/06/24 02:06:15;;;;;;;4.70;2.00;;;;;;;16.45;100.00;100518.75;6220266;23;20445;-83
2022/06/24 02:08:41;;;;;;;2.50;1.85;;;;;;;16.49;100.00;100517.94;6219966;23;20008;-83
2022/06/24 02:13:51;;;;;;;3.87;2.13;;;;;;;16.42;100.00;100527.47;6247412;23;20019;-83
2022/06/24 02:16:20;;;;;;;2.80;2.20;;;;;;;16.41;100.00;100532.09;6219818;23;20091;-85
2022/06/24 02:18:46;;;;;;;3.58;2.42;;;;;;;16.35;100.00;100529.63;6195119;23;20014;-84
2022/06/24 02:21:12;;;;;;;4.78;2.38;;;;;;;16.35;100.00;100535.09;6220255;23;20008;-84
2022/06/24 02:23:38;;;;;;;4.07;2.73;;;;;;;16.35;100.00;100522.22;6220421;23;20008;-84
2022/06/24 02:26:04;;;;;;;4.38;3.08;;;;;;;16.31;100.00;100529.28;6246632;23;20015;-85
2022/06/24 02:28:29;;;;;;;4.70;2.73;;;;;;;16.29;100.00;100518.59;6220022;23;20011;-85
2022/06/24 02:30:59;;;;;;;3.83;2.97;;;;;;;16.31;100.00;100510.97;6246957;23;20036;-85
2022/06/24 02:33:29;;;;;;;10.82;3.47;;;;;;;16.41;100.00;100509.41;6219846;23;20330;-86
2022/06/24 02:35:57;;;;;;;4.90;3.40;;;;;;;16.54;100.00;100508.13;6219566;23;20004;-85
2022/06/24 02:38:23;;;;;;;5.35;3.50;;;;;;;16.60;100.00;100505.13;6219898;23;20083;-85
2022/06/24 02:40:54;;;;;;;4.18;3.40;;;;;;;16.81;100.00;100494.31;6219762;23;20008;-85
2022/06/24 02:43:28;;;;;;;7.13;4.10;;;;;;;16.89;100.00;100488.34;6219702;23;20016;-85
2022/06/24 02:45:58;;;;;;;9.73;4.03;;;;;;;16.96;100.00;100486.22;6219276;23;20146;-85
2022/06/24 02:48:25;;;;;;;8.68;4.22;;;;;;;17.06;100.00;100493.63;6220139;23;20437;-85
2022/06/24 02:50:55;;;;;;;5.22;3.72;;;;;;;17.01;100.00;100493.63;6219703;23;20000;-85
2022/06/24 02:53:22;;;;;;;5.45;4.07;;;;;;;17.07;100.00;100483.50;6246924;23;20027;-85
2022/06/24 02:55:52;;;;;;;5.30;3.27;;;;;;;17.07;100.00;100483.50;6220085;23;20497;-85
2022/06/24 02:58:17;;;;;;;5.63;3.67;;;;;;;17.12;100.00;100483.53;6245963;23;20004;-85
2022/06/24 03:00:44;;;;;;;9.27;3.65;;;;;;;17.10;100.00;100477.50;6246033;23;20419;-85
2022/06/24 03:03:11;;;;;;;5.45;3.20;;;;;;;17.11;100.00;100466.25;6246614;23;20008;-85
2022/06/24 03:05:39;;;;;;;4.47;3.30;;;;;;;17.14;100.00;100467.63;6219273;23;20004;-85
2022/06/24 03:08:08;;;;;;;4.80;3.90;;;;;;;17.16;100.00;100471.75;6219985;23;20031;-84
2022/06/24 03:10:34;;;;;;;6.15;4.40;;;;;;;17.19;100.00;100473.13;6221216;23;20008;-84
2022/06/24 03:13:01;;;;;;;6.55;4.03;;;;;;;17.12;100.00;100473.38;6221520;23;20062;-85
2022/06/24 03:15:27;;;;;;;7.93;4.20;;;;;;;17.09;100.00;100473.91;6221783;23;20311;-85
2022/06/24 03:17:56;;;;;;;7.25;4.57;;;;;;;17.09;100.00;100459.38;6221365;23;20049;-84
2022/06/24 03:20:22;;;;;;;6.32;4.60;;;;;;;17.08;100.00;100461.31;6221715;23;20035;-84
2022/06/24 03:22:57;;;;;;;6.55;4.50;;;;;;;17.10;100.00;100461.88;6221810;23;20008;-85
2022/06/24 03:25:22;;;;;;;6.87;4.30;;;;;;;17.15;100.00;100463.78;6222397;23;20008;-85
2022/06/24 03:27:48;;;;;;;6.47;4.50;;;;;;;17.19;100.00;100460.25;6221616;23;20466;-85
2022/06/24 03:30:13;;;;;;;8.63;4.50;;;;;;;17.12;100.00;100456.09;6221144;23;20016;-85
2022/06/24 03:32:42;;;;;;;5.38;4.45;;;;;;;17.17;100.00;100462.44;6196769;23;20066;-85
2022/06/24 03:35:08;;;;;;;6.00;5.10;;;;;;;17.18;100.00;100464.09;6221907;23;20012;-85
2022/06/24 03:37:35;;;;;;;8.10;5.68;;;;;;;17.18;100.00;100455.88;6221453;23;20438;-85
2022/06/24 03:40:01;;;;;;;8.45;6.22;;;;;;;17.25;100.00;100441.91;6248084;23;20031;-85
2022/06/24 03:42:27;;;;;;;8.18;5.95;;;;;;;17.17;100.00;100445.19;6247902;23;20311;-85
2022/06/24 03:44:53;;;;;;;7.25;6.18;;;;;;;17.16;100.00;100446.25;6220903;23;20008;-85
2022/06/24 03:47:19;;;;;;;7.47;6.07;;;;;;;17.15;100.00;100450.91;6248645;23;20030;-84
2022/06/24 03:49:45;;;;;;;8.77;5.90;;;;;;;17.16;100.00;100440.78;6221376;23;20069;-86
2022/06/24 03:52:11;;;;;;;9.52;6.65;;;;;;;17.14;100.00;100452.00;6221478;23;20027;-86
2022/06/24 03:54:37;;;;;;;9.17;6.07;;;;;;;17.01;100.00;100458.00;6221161;23;20019;-86
2022/06/24 03:57:03;;;;;;;9.02;6.07;;;;;;;16.89;100.00;100480.13;6221223;23;20000;-86
2022/06/24 03:59:33;;;;;;;10.25;6.35;;;;;;;16.73;100.00;100472.91;6196239;23;20012;-86
2022/06/24 04:02:01;;;;;;;12.20;7.05;;;;;;;16.71;100.00;100473.19;6222060;23;20004;-87
2022/06/24 04:04:36;;;;;;;11.15;7.25;;;;;;;16.77;100.00;100482.22;6221271;23;20015;-86
2022/06/24 04:07:05;;;;;;;8.13;7.30;;;;;;;16.74;100.00;100500.03;6221348;23;20050;-87
2022/06/24 04:09:30;;;;;;;8.85;7.55;;;;;;;16.70;100.00;100490.69;6221144;23;20039;-86
2022/06/24 04:11:56;;;;;;;10.37;7.60;;;;;;;16.63;100.00;100498.31;6220913;23;20004;-86
2022/06/24 04:17:10;;;;;;;15.05;8.82;;;;;;;16.59;100.00;100508.13;6247705;23;20066;-87
2022/06/24 04:19:36;;;;;;;10.57;8.13;;;;;;;16.64;100.00;100503.53;6247685;23;20031;-87
2022/06/24 04:22:03;;;;;;;12.20;8.70;;;;;;;16.68;100.00;100503.81;6247766;23;20050;-86
2022/06/24 04:24:29;;;;;;;12.23;9.32;;;;;;;16.73;100.00;100503.03;6220695;23;20004;-87
2022/06/24 04:26:54;;;;;;;13.93;8.83;;;;;;;16.67;100.00;100516.69;6247427;23;20008;-87
2022/06/24 04:29:20;;;;;;;13.93;9.57;;;;;;;16.65;100.00;100516.13;6220893;23;20012;-86
2022/06/24 04:31:45;;;;;;;16.10;9.90;;;;;;;16.72;100.00;100504.94;6220820;23;20008;-86
2022/06/24 04:34:11;;;;;;;13.60;10.20;;;;;;;16.73;100.00;100500.31;6220549;23;20004;-86
2022/06/24 04:36:37;;;;;;;17.02;11.13;;;;;;;16.75;100.00;100509.06;6221727;23;20288;-86
2022/06/24 04:39:05;;;;;;;19.53;11.60;;;;;;;16.72;100.00;100501.38;6220592;23;20012;-86
2022/06/24 04:41:33;;;;;;;16.88;11.82;;;;;;;16.83;100.00;100509.41;6220510;23;20008;-87
2022/06/24 04:43:58;;;;;;;20.90;12.10;;;;;;;16.81;100.00;100505.25;6221479;23;20016;-87
2022/06/24 04:46:23;;;;;;;18.07;11.73;;;;;;;16.82;100.00;100490.47;6220577;23;20012;-87
2022/06/24 04:48:51;;;;;;;18.40;11.53;;;;;;;16.79;100.00;100483.63;6220246;23;20464;-87
2022/06/24 04:51:22;;;;;;;19.75;12.07;;;;;;;16.78;100.00;100489.34;6196166;23;20505;-86
2022/06/24 04:53:48;;;;;;;16.35;12.10;;;;;;;16.80;100.00;100495.38;6220809;23;20008;-87
2022/06/24 04:56:16;;;;;;;21.10;13.03;;;;;;;16.86;100.00;100493.50;6220366;23;20074;-86
2022/06/24 04:58:41;;;;;;;18.30;12.80;;;;;;;16.92;100.00;100490.56;6220690;23;20012;-87
2022/06/24 05:01:14;;;;;;;17.57;13.13;;;;;;;16.97;100.00;100492.50;6220738;23;20466;-87
2022/06/24 05:03:42;;;;;;;18.45;12.75;;;;;;;16.91;100.00;100497.13;6222625;23;20008;-86
2022/06/24 05:06:10;;;;;;;20.80;13.13;;;;;;;16.93;100.00;100497.72;6220431;23;20365;-86
2022/06/24 05:08:42;;;;;;;23.10;14.18;;;;;;;16.93;100.00;100510.56;6195387;23;20004;-87
2022/06/24 05:11:07;;;;;;;21.05;15.13;;;;;;;16.83;100.00;100512.13;6247637;23;20504;-86
2022/06/24 05:13:35;;;;;;;22.23;15.20;;;;;;;16.80;100.00;100503.59;6220822;23;20008;-87
2022/06/24 05:16:00;;;;;;;22.80;15.63;;;;;;;16.82;100.00;100504.19;6220365;23;20019;-86
2022/06/24 05:18:29;;;;;;;21.30;15.17;;;;;;;16.88;100.00;100505.06;6220562;23;20004;-81
2022/06/24 05:20:54;;;;;;;22.48;15.68;;;;;;;16.86;100.00;100508.03;6221401;23;20004;-82
2022/06/24 05:23:20;;;;;;;21.40;15.27;;;;;;;16.93;100.00;100500.44;6170690;23;20457;-81
2022/06/24 05:25:45;;;;;;;21.70;15.57;;;;;;;17.03;100.00;100502.38;6247008;23;20011;-80
2022/06/24 05:28:10;;;;;;;27.83;16.73;;;;;;;17.01;100.00;100510.06;6220252;23;20008;-82
2022/06/24 05:30:36;;;;;;;23.67;16.10;;;;;;;17.08;100.00;100518.88;6247311;23;20031;-81
2022/06/24 05:33:02;;;;;;;20.75;15.50;;;;;;;17.12;100.00;100519.16;6246753;23;20031;-82
2022/06/24 05:35:27;;;;;;;26.73;16.80;;;;;;;17.27;100.00;100512.91;6247394;23;20436;-81
2022/06/24 05:37:53;;;;;;;26.00;16.30;;;;;;;17.27;100.00;100516.50;6194934;23;20490;-82
2022/06/24 05:40:18;;;;;;;22.47;15.97;;;;;;;17.24;100.00;100517.00;6195799;23;20004;-81
2022/06/24 05:42:43;;;;;;;22.40;15.57;;;;;;;17.20;100.00;100515.91;6195297;23;20338;-81
2022/06/24 05:45:09;;;;;;;24.15;16.23;;;;;;;17.23;100.00;100520.00;6194426;23;20052;-81
2022/06/24 05:47:35;;;;;;;23.37;16.43;;;;;;;17.26;100.00;100520.31;6220384;23;20016;-81
2022/06/24 05:50:00;;;;;;;26.15;16.67;;;;;;;17.26;100.00;100516.72;6220053;23;20012;-81
2022/06/24 05:55:10;;;;;;;31.88;19.05;;;;;;;17.35;100.00;100505.00;6246776;23;20019;-81
2022/06/24 05:57:35;;;;;;;32.83;19.00;;;;;;;17.32;100.00;100508.28;6194747;23;20012;-81
2022/06/24 06:00:01;;;;;;;42.50;20.17;;;;;;;17.40;100.00;100504.19;6247220;23;20005;-82
2022/06/24 06:02:29;;;;;;;40.10;20.73;;;;;;;17.57;100.00;100508.59;6247145;23;20377;-83
2022/06/24 06:04:54;;;;;;;43.15;22.05;;;;;;;17.64;100.00;100503.69;6195528;23;20032;-84
2022/06/24 06:07:20;;;;;;;43.40;22.30;;;;;;;17.77;100.00;100511.41;6194857;23;20062;-85
2022/06/24 06:09:45;;;;;;;48.22;23.15;;;;;;;17.85;100.00;100508.13;6219404;23;20004;-84
2022/06/24 06:12:12;;;;;;;49.40;24.27;;;;;;;17.85;100.00;100508.13;6246280;23;20488;-84
2022/06/24 06:14:39;;;;;;;55.95;25.25;;;;;;;17.84;100.00;100506.47;6246081;23;20426;-84
2022/06/24 06:17:05;;;;;;;52.70;25.63;;;;;;;17.79;100.00;100511.13;6219817;23;20088;-84
2022/06/24 06:19:33;;;;;;;56.93;25.90;;;;;;;17.76;100.00;100507.03;6246916;23;20007;-85
2022/06/24 06:22:05;;;;;;;80.95;26.65;;;;;;;17.70;100.00;100516.31;6220454;23;20358;-86
2022/06/24 06:25:00;;;;;;;79.85;29.60;;;;;;;17.83;100.00;100521.31;6219454;23;20012;-89
2022/06/24 06:27:30;;;;;;;74.93;30.20;;;;;;;17.90;100.00;100504.59;6217819;23;20065;-84
2022/06/24 06:30:06;;;;;;;91.35;30.35;;;;;;;18.01;100.00;100516.38;6194103;23;20012;-84
2022/06/24 06:32:32;;;;;;;89.80;30.90;;;;;;;17.95;100.00;100518.34;6196139;23;20426;-86
2022/06/24 06:34:59;;;;;;;77.60;30.52;;;;;;;17.90;100.00;100512.00;6219531;23;20008;-84
2022/06/24 06:37:25;;;;;;;56.03;25.98;;;;;;;17.85;100.00;100521.84;6194663;23;20026;-83
2022/06/24 06:39:50;;;;;;;50.00;24.73;;;;;;;17.74;100.00;100514.69;6218989;23;20008;-83
2022/06/24 06:42:16;;;;;;;50.97;24.60;;;;;;;17.77;100.00;100524.28;6219457;23;20027;-84
2022/06/24 06:44:44;;;;;;;54.50;24.90;;;;;;;17.80;100.00;100521.00;6218841;23;20008;-86
2022/06/24 06:47:15;;;;;;;54.03;26.40;;;;;;;17.66;100.00;100507.00;6220449;23;20012;-85
2022/06/24 06:49:40;;;;;;;56.58;26.52;;;;;;;17.73;100.00;100515.81;6218894;23;20004;-86
2022/06/24 06:52:06;;;;;;;63.40;27.53;;;;;;;17.68;100.00;100510.28;6194195;23;20023;-87
2022/06/24 06:54:41;;;;;;;;;;;;;;;;;;;;;
2022/06/24 06:57:09;;;;;;;57.63;29.85;;;;;;;17.73;100.00;100513.06;6246307;23;20500;-85
2022/06/24 06:59:40;;;;;;;55.60;28.27;;;;;;;17.67;100.00;100504.00;6194779;23;20012;-85
2022/06/24 07:02:06;;;;;;;64.82;29.27;;;;;;;17.79;100.00;100505.63;6170651;23;20066;-86
2022/06/24 07:04:33;;;;;;;64.07;29.70;;;;;;;17.88;100.00;100506.75;6218986;23;20157;-86
2022/06/24 07:07:01;;;;;;;58.95;29.95;;;;;;;18.02;100.00;100496.09;6219396;23;20016;-86
2022/06/24 07:09:27;;;;;;;60.13;30.85;;;;;;;18.06;100.00;100511.72;6194612;23;20334;-85
2022/06/24 07:11:53;;;;;;;65.67;30.27;;;;;;;18.02;100.00;100507.88;6194165;23;20098;-85
2022/06/24 07:14:19;;;;;;;65.43;31.05;;;;;;;18.19;100.00;100504.06;6219594;23;20008;-85
2022/06/24 07:16:44;;;;;;;74.57;32.77;;;;;;;18.28;100.00;100501.56;6219482;23;20374;-85
2022/06/24 07:19:10;;;;;;;66.68;33.22;;;;;;;18.34;100.00;100490.31;6220073;23;20082;-85
2022/06/24 07:21:38;;;;;;;73.47;33.40;;;;;;;18.55;100.00;100496.59;6245874;23;20316;-85
2022/06/24 07:24:07;;;;;;;78.95;36.67;;;;;;;18.64;100.00;100487.81;6220179;23;20489;-85
2022/06/24 07:26:32;;;;;;;77.33;36.83;;;;;;;18.66;100.00;100489.19;6220914;23;20062;-85
2022/06/24 07:28:58;;;;;;;79.80;37.55;;;;;;;18.80;100.00;100488.59;6220019;23;20012;-85
2022/06/24 07:31:23;;;;;;;82.33;39.50;;;;;;;18.87;100.00;100492.72;6219341;23;20035;-85
2022/06/24 07:33:49;;;;;;;70.07;35.97;;;;;;;18.72;100.00;100499.03;6219487;23;20028;-84
2022/06/24 07:36:14;;;;;;;60.80;33.50;;;;;;;18.48;100.00;100504.28;6194012;23;20016;-84
2022/06/24 07:38:40;;;;;;;59.77;34.60;;;;;;;18.36;100.00;100512.00;6246455;23;20011;-85
2022/06/24 07:41:08;;;;;;;62.80;36.53;;;;;;;18.26;100.00;100515.56;6219292;23;20422;-84
2022/06/24 07:43:34;;;;;;;67.05;37.15;;;;;;;18.23;100.00;100518.88;6246326;23;20004;-84
2022/06/24 07:46:00;;;;;;;81.93;42.17;;;;;;;18.19;100.00;100526.03;6218819;23;20020;-84
2022/06/24 07:48:25;;;;;;;91.13;44.55;;;;;;;18.20;100.00;100528.50;6194267;23;20111;-84
2022/06/24 07:50:51;;;;;;;90.03;47.37;;;;;;;18.13;100.00;100535.34;6219289;23;20004;-84
2022/06/24 07:53:16;;;;;;;94.07;51.60;;;;;;;17.98;100.00;100533.41;6194209;23;20008;-84
2022/06/24 07:58:25;;;;;;;102.32;51.03;;;;;;;17.93;100.00;100536.97;6247684;23;20098;-85
2022/06/24 08:00:51;;;;;;;117.67;58.83;;;;;;;17.95;100.00;100536.69;6220889;23;20032;-85
2022/06/24 08:03:19;;;;;;;102.82;52.88;;;;;;;17.98;100.00;100536.16;6222061;23;20004;-85
2022/06/24 08:05:45;;;;;;;102.05;52.67;;;;;;;18.06;100.00;100536.44;6220696;23;20008;-85
2022/06/24 08:08:10;;;;;;;105.63;54.53;;;;;;;18.17;100.00;100536.44;6195737;23;20448;-84
2022/06/24 08:10:36;;;;;;;103.07;53.37;;;;;;;18.33;100.00;100538.09;6195953;23;20012;-85
2022/06/24 08:13:02;;;;;;;83.90;46.58;;;;;;;18.33;100.00;100535.34;6220210;23;20087;-85
2022/06/24 08:15:30;;;;;;;79.57;45.03;;;;;;;18.45;100.00;100543.31;6247595;23;20339;-85
2022/06/24 08:18:01;;;;;;;74.53;43.78;;;;;;;18.54;100.00;100544.41;6195609;23;20103;-85
2022/06/24 08:20:29;;;;;;;68.70;42.03;;;;;;;18.55;100.00;100543.28;6196851;23;20012;-84
2022/06/24 08:23:12;;;;;;;60.38;38.42;;;;;;;18.58;100.00;100537.25;6247634;23;20004;-84
2022/06/24 08:25:37;;;;;;;42.72;30.63;;;;;;;18.56;100.00;100524.91;6224613;23;20008;-85
2022/06/24 08:28:15;;;;;;;39.90;27.77;;;;;;;18.57;100.00;100527.38;6220592;23;20065;-85
2022/06/24 08:30:45;;;;;;;46.05;31.15;;;;;;;18.84;100.00;100525.38;6195688;23;20453;-85
2022/06/24 08:33:23;;;;;;;34.75;27.25;;;;;;;18.93;100.00;100519.06;6221906;23;20070;-85
2022/06/24 08:35:49;;;;;;;38.00;28.37;;;;;;;19.03;100.00;100525.63;6196495;23;20099;-85
2022/06/24 08:38:17;;;;;;;38.67;28.17;;;;;;;19.21;100.00;100519.53;6220299;23;20403;-84
2022/06/24 08:40:47;;;;;;;30.75;22.45;;;;;;;19.25;100.00;100520.63;6247669;23;20003;-85
2022/06/24 08:43:16;;;;;;;26.95;21.88;;;;;;;19.41;100.00;100526.03;6221641;23;20407;-85
2022/06/24 08:45:42;;;;;;;30.17;22.52;;;;;;;19.65;100.00;100528.97;6247420;23;20012;-85
2022/06/24 08:48:11;;;;;;;29.47;22.23;;;;;;;19.82;100.00;100534.09;6220310;23;20333;-85
2022/06/24 08:50:40;;;;;;;30.27;24.30;;;;;;;19.95;100.00;100527.94;6247105;23;20000;-85
2022/06/24 08:53:10;;;;;;;35.28;26.30;;;;;;;20.08;100.00;100525.69;6246964;23;20098;-85
2022/06/24 08:55:40;;;;;;;36.53;28.50;;;;;;;20.05;100.00;100528.97;6221457;23;20062;-85
2022/06/24 08:58:14;;;;;;;40.03;31.27;;;;;;;20.04;100.00;100533.69;6221312;23;20012;-85
2022/06/24 09:00:43;;;;;;;39.63;31.20;;;;;;;20.00;100.00;100518.84;6220930;23;20008;-85
2022/06/24 09:03:09;;;;;;;35.85;26.40;;;;;;;19.82;100.00;100520.34;6220070;23;20031;-85
2022/06/24 09:05:40;;;;;;;34.33;27.52;;;;;;;19.74;100.00;100520.94;6220623;23;20082;-85
2022/06/24 09:08:16;;;;;;;38.55;28.90;;;;;;;19.67;100.00;100517.66;6219940;23;20012;-85
2022/06/24 09:13:45;;;;;;;40.38;30.88;;;;;;;19.86;100.00;100518.66;6247449;23;20326;-85
2022/06/24 09:16:20;;;;;;;35.25;27.58;;;;;;;19.92;100.00;100514.75;6220406;23;20077;-84
2022/06/24 09:18:53;;;;;;;34.38;26.98;;;;;;;20.06;100.00;100514.91;6220137;23;20059;-86
2022/06/24 09:21:39;;;;;;;32.35;25.60;;;;;;;19.98;100.00;100518.31;6220095;23;20043;-85
2022/06/24 09:24:08;;;;;;;22.43;18.60;;;;;;;19.92;100.00;100522.22;6198116;23;20035;-84
2022/06/24 09:26:42;;;;;;;26.00;20.13;;;;;;;20.12;100.00;100522.06;6220223;23;20035;-85
2022/06/24 09:29:12;;;;;;;26.98;20.20;;;;;;;20.14;100.00;100524.53;6195249;23;20342;-85
2022/06/24 09:31:40;;;;;;;25.98;19.77;;;;;;;20.25;100.00;100515.03;6220103;23;20015;-84
2022/06/24 09:34:13;;;;;;;25.70;20.33;;;;;;;20.55;98.46;100513.16;6195319;23;20098;-85
2022/06/24 09:36:44;;;;;;;20.33;17.70;;;;;;;20.80;97.09;100512.09;6219916;23;20028;-85
2022/06/24 09:39:13;;;;;;;23.25;19.00;;;;;;;21.16;97.40;100513.59;6195625;23;20008;-85
2022/06/24 09:41:55;;;;;;;20.23;16.48;;;;;;;21.35;97.15;100510.88;6220128;23;20012;-85
2022/06/24 09:44:44;;;;;;;16.02;14.32;;;;;;;21.54;94.77;100505.41;6220330;23;20481;-84
2022/06/24 09:47:12;;;;;;;15.32;13.73;;;;;;;21.71;92.50;100507.66;6219468;23;20020;-83
2022/06/24 09:49:38;;;;;;;16.40;12.60;;;;;;;22.09;90.44;100510.38;6194347;23;20012;-83
2022/06/24 09:52:04;;;;;;;14.88;12.07;;;;;;;22.34;88.20;100505.59;6245993;23;20033;-84
2022/06/24 09:54:31;;;;;;;14.95;12.45;;;;;;;22.13;84.56;100503.13;6246386;23;20411;-83
2022/06/24 09:56:58;;;;;;;12.57;10.73;;;;;;;21.93;85.14;100515.31;6220239;23;20036;-84
2022/06/24 10:02:18;;;;;;;12.05;10.52;;;;;;;21.36;87.11;100518.03;6223585;23;20022;-83
2022/06/24 10:04:50;;;;;;;11.57;10.38;;;;;;;21.58;87.50;100516.69;6246880;23;20087;-84
2022/06/24 10:07:16;;;;;;;11.93;10.30;;;;;;;22.25;86.54;100516.47;6220399;23;20019;-83
2022/06/24 10:09:42;;;;;;;12.20;10.87;;;;;;;22.81;84.33;100511.91;6246707;23;20433;-83
2022/06/24 10:12:09;;;;;;;11.00;9.43;;;;;;;22.85;79.52;100509.34;6194666;23;20115;-83
2022/06/24 10:14:39;;;;;;;13.82;10.15;;;;;;;23.01;79.93;100507.09;6246024;23;20023;-83
2022/06/24 10:17:05;;;;;;;11.52;8.82;;;;;;;23.30;76.73;100504.84;6246578;23;20083;-84
2022/06/24 10:19:31;;;;;;;9.67;8.67;;;;;;;23.01;76.35;100520.94;6218965;23;20004;-84
2022/06/24 10:21:59;;;;;;;13.35;11.07;;;;;;;21.97;80.46;100534.88;6194253;23;20012;-84
2022/06/24 10:24:38;;;;;;;10.05;6.00;;;;;;;21.04;82.39;100552.63;6220399;23;20008;-84
2022/06/24 10:27:03;;;;;;;4.87;2.40;;;;;;;19.42;90.33;100572.53;6245915;23;20095;-86
2022/06/24 10:29:30;;;;;;;12.20;2.53;;;;;;;18.44;95.03;100596.63;6220045;23;20086;-87
2022/06/24 10:32:01;;;;;;;4.88;2.30;;;;;;;17.26;100.00;100566.91;6194148;23;20091;-85
2022/06/24 10:34:35;;;;;;;3.80;2.20;;;;;;;17.04;100.00;100563.50;6246298;23;20010;-86
2022/06/24 10:37:25;;;;;;;3.72;2.22;;;;;;;17.09;100.00;100567.09;6245839;23;20382;-84
2022/06/24 10:40:00;;;;;;;7.35;3.38;;;;;;;17.44;100.00;100560.13;6218881;23;20004;-85
2022/06/24 10:42:31;;;;;;;6.47;3.72;;;;;;;17.50;100.00;100569.22;6219583;23;20513;-84
2022/06/24 10:45:06;;;;;;;4.35;3.80;;;;;;;17.30;100.00;100554.34;6193905;23;20020;-84
2022/06/24 10:47:35;;;;;;;6.90;5.00;;;;;;;17.49;100.00;100562.06;6219245;23;20004;-84
2022/06/24 10:50:02;;;;;;;7.45;5.93;;;;;;;17.45;100.00;100567.28;6245922;23;20008;-84
2022/06/24 10:52:34;;;;;;;11.05;6.53;;;;;;;17.32;100.00;100585.03;6219700;23;20004;-83
2022/06/24 10:55:33;;;;;;;9.70;5.65;;;;;;;17.10;100.00;100582.47;6194439;23;20091;-83
2022/06/24 10:58:19;;;;;;;5.93;4.35;;;;;;;17.00;100.00;100569.50;6130015;23;20427;-83
2022/06/24 11:00:51;;;;;;;6.97;4.20;;;;;;;16.95;100.00;100553.06;6219251;23;20042;-83
2022/06/24 11:03:30;;;;;;;6.60;3.70;;;;;;;16.99;100.00;100553.34;6219826;23;20011;-87
2022/06/24 11:05:55;;;;;;;5.57;4.55;;;;;;;17.08;100.00;100550.91;6220289;23;20023;-84
2022/06/24 11:08:24;;;;;;;10.13;8.88;;;;;;;17.30;100.00;100561.72;6246034;23;20004;-84
2022/06/24 11:10:50;;;;;;;13.77;9.23;;;;;;;17.53;100.00;100560.44;6194514;23;20349;-84
2022/06/24 11:13:23;;;;;;;12.80;8.93;;;;;;;17.82;100.00;100551.72;6219716;23;20016;-82
2022/06/24 11:15:52;;;;;;;17.58;10.88;;;;;;;18.06;100.00;100533.69;6246465;23;20492;-81
2022/06/24 11:18:30;;;;;;;9.88;7.38;;;;;;;18.34;100.00;100531.50;6218976;23;20081;-81
2022/06/24 11:21:04;;;;;;;18.70;12.68;;;;;;;19.14;100.00;100534.69;6219567;23;20527;-80
2022/06/24 11:23:32;;;;;;;6.30;5.70;;;;;;;19.28;100.00;100538.47;6219334;23;20038;-80
2022/06/24 11:26:20;;;;;;;4.60;4.20;;;;;;;20.16;100.00;100534.13;6219464;23;20004;-80
2022/06/24 11:28:51;;;;;;;4.90;4.43;;;;;;;20.35;100.00;100519.66;6246092;23;20031;-80
2022/06/24 11:31:26;;;;;;;3.90;3.45;;;;;;;20.19;100.00;100523.66;6247291;23;20453;-80